sensor_id;sensor_type;location;lat;lon;timestamp;pressure;altitude;pressure_sealevel;temperature;humidity
36234;BME280;43467;50.890;5.982;2023-02-22T00:01:25;100070.50;;;8.84;89.17
36234;BME280;43467;50.890;5.982;2023-02-22T00:04:04;100070.00;;;8.96;89.24
36234;BME280;43467;50.890;5.982;2023-02-22T00:06:30;100063.97;;;8.93;88.94
36234;BME280;43467;50.890;5.982;2023-02-22T00:08:56;100063.38;;;8.86;88.61
36234;BME280;43467;50.890;5.982;2023-02-22T00:11:22;100066.75;;;8.90;88.53
36234;BME280;43467;50.890;5.982;2023-02-22T00:13:48;100077.16;;;8.93;88.22
36234;BME280;43467;50.890;5.982;2023-02-22T00:16:20;100066.88;;;8.86;88.22
36234;BME280;43467;50.890;5.982;2023-02-22T00:18:46;100072.16;;;8.86;87.87
36234;BME280;43467;50.890;5.982;2023-02-22T00:21:13;100061.72;;;8.83;87.73
36234;BME280;43467;50.890;5.982;2023-02-22T00:23:44;100064.38;;;8.83;88.26
36234;BME280;43467;50.890;5.982;2023-02-22T00:26:19;100061.91;;;8.79;88.03
36234;BME280;43467;50.890;5.982;2023-02-22T00:28:50;100059.41;;;8.76;87.60
36234;BME280;43467;50.890;5.982;2023-02-22T00:31:16;100064.56;;;8.79;87.54
36234;BME280;43467;50.890;5.982;2023-02-22T00:33:42;100062.81;;;8.78;87.26
36234;BME280;43467;50.890;5.982;2023-02-22T00:36:09;100055.34;;;8.67;87.14
36234;BME280;43467;50.890;5.982;2023-02-22T00:38:35;100058.22;;;8.61;87.70
36234;BME280;43467;50.890;5.982;2023-02-22T00:41:01;100050.31;;;8.61;88.01
36234;BME280;43467;50.890;5.982;2023-02-22T00:43:26;100055.69;;;8.60;87.85
36234;BME280;43467;50.890;5.982;2023-02-22T00:45:52;100045.22;;;8.57;87.97
36234;BME280;43467;50.890;5.982;2023-02-22T00:48:18;100039.16;;;8.55;87.66
36234;BME280;43467;50.890;5.982;2023-02-22T00:50:44;100037.44;;;8.54;87.64
36234;BME280;43467;50.890;5.982;2023-02-22T00:53:10;100053.88;;;8.60;87.57
36234;BME280;43467;50.890;5.982;2023-02-22T00:55:36;100057.31;;;8.62;87.75
36234;BME280;43467;50.890;5.982;2023-02-22T00:58:03;100048.59;;;8.60;87.84
36234;BME280;43467;50.890;5.982;2023-02-22T01:00:34;100048.59;;;8.60;88.14
36234;BME280;43467;50.890;5.982;2023-02-22T01:03:01;100032.88;;;8.57;87.91
36234;BME280;43467;50.890;5.982;2023-02-22T01:05:28;100025.97;;;8.55;87.01
36234;BME280;43467;50.890;5.982;2023-02-22T01:07:55;100035.06;;;8.48;87.38
36234;BME280;43467;50.890;5.982;2023-02-22T01:10:23;100033.25;;;8.48;88.13
36234;BME280;43467;50.890;5.982;2023-02-22T01:12:49;100033.25;;;8.48;88.32
36234;BME280;43467;50.890;5.982;2023-02-22T01:15:18;100035.97;;;8.47;88.30
36234;BME280;43467;50.890;5.982;2023-02-22T01:17:46;100044.66;;;8.49;88.26
36234;BME280;43467;50.890;5.982;2023-02-22T01:20:12;100041.97;;;8.50;88.54
36234;BME280;43467;50.890;5.982;2023-02-22T01:22:39;100040.97;;;8.53;87.45
36234;BME280;43467;50.890;5.982;2023-02-22T01:25:04;100039.53;;;8.46;87.77
36234;BME280;43467;50.890;5.982;2023-02-22T01:27:32;100052.59;;;8.25;87.80
36234;BME280;43467;50.890;5.982;2023-02-22T01:29:57;100044.41;;;8.33;88.25
36234;BME280;43467;50.890;5.982;2023-02-22T01:32:22;100039.97;;;8.35;88.67
36234;BME280;43467;50.890;5.982;2023-02-22T01:34:48;100029.41;;;8.35;88.33
36234;BME280;43467;50.890;5.982;2023-02-22T01:37:13;100028.97;;;8.46;88.26
36234;BME280;43467;50.890;5.982;2023-02-22T01:39:38;100030.69;;;8.47;87.94
36234;BME280;43467;50.890;5.982;2023-02-22T01:42:04;100031.44;;;8.50;88.10
36234;BME280;43467;50.890;5.982;2023-02-22T01:44:33;100028.66;;;8.53;87.92
36234;BME280;43467;50.890;5.982;2023-02-22T01:47:00;100034.47;;;8.61;87.40
36234;BME280;43467;50.890;5.982;2023-02-22T01:49:31;100026.56;;;8.61;87.06
36234;BME280;43467;50.890;5.982;2023-02-22T01:52:01;100024.78;;;8.62;87.87
36234;BME280;43467;50.890;5.982;2023-02-22T01:54:42;100025.84;;;8.58;87.99
36234;BME280;43467;50.890;5.982;2023-02-22T01:59:43;100026.66;;;8.60;87.47
36234;BME280;43467;50.890;5.982;2023-02-22T02:02:11;100017.19;;;8.54;86.92
36234;BME280;43467;50.890;5.982;2023-02-22T02:04:38;100015.31;;;8.56;87.19
36234;BME280;43467;50.890;5.982;2023-02-22T02:07:07;100020.41;;;8.61;86.74
36234;BME280;43467;50.890;5.982;2023-02-22T02:12:19;100019.81;;;8.54;86.78
36234;BME280;43467;50.890;5.982;2023-02-22T02:14:47;100013.19;;;8.44;86.75
36234;BME280;43467;50.890;5.982;2023-02-22T02:17:15;100006.41;;;8.38;87.39
36234;BME280;43467;50.890;5.982;2023-02-22T02:19:59;100016.00;;;8.39;87.33
36234;BME280;43467;50.890;5.982;2023-02-22T02:22:50;100018.53;;;8.43;87.75
36234;BME280;43467;50.890;5.982;2023-02-22T02:28:46;100026.28;;;8.24;87.67
36234;BME280;43467;50.890;5.982;2023-02-22T02:34:22;100015.03;;;7.97;88.85
36234;BME280;43467;50.890;5.982;2023-02-22T02:37:27;100028.75;;;8.07;90.00
36234;BME280;43467;50.890;5.982;2023-02-22T02:42:44;100026.72;;;7.67;90.05
36234;BME280;43467;50.890;5.982;2023-02-22T02:45:18;100025.41;;;7.55;89.93
36234;BME280;43467;50.890;5.982;2023-02-22T02:47:51;100017.00;;;7.45;90.23
36234;BME280;43467;50.890;5.982;2023-02-22T02:50:30;100023.63;;;7.32;89.84
36234;BME280;43467;50.890;5.982;2023-02-22T02:53:00;100017.44;;;7.33;90.54
36234;BME280;43467;50.890;5.982;2023-02-22T02:55:28;100008.44;;;7.39;90.39
36234;BME280;43467;50.890;5.982;2023-02-22T02:57:54;100010.06;;;7.43;91.50
36234;BME280;43467;50.890;5.982;2023-02-22T03:00:24;99999.47;;;7.44;90.11
36234;BME280;43467;50.890;5.982;2023-02-22T03:05:50;99993.47;;;7.64;89.17
36234;BME280;43467;50.890;5.982;2023-02-22T03:08:46;99995.41;;;7.59;87.53
36234;BME280;43467;50.890;5.982;2023-02-22T03:11:20;99984.69;;;7.64;86.73
36234;BME280;43467;50.890;5.982;2023-02-22T03:14:12;99989.34;;;7.57;87.25
36234;BME280;43467;50.890;5.982;2023-02-22T03:17:03;99988.19;;;7.64;87.32
36234;BME280;43467;50.890;5.982;2023-02-22T03:19:37;99987.84;;;7.50;87.32
36234;BME280;43467;50.890;5.982;2023-02-22T03:22:19;99985.00;;;7.56;87.43
36234;BME280;43467;50.890;5.982;2023-02-22T03:25:06;99977.47;;;7.69;87.57
36234;BME280;43467;50.890;5.982;2023-02-22T03:27:59;99978.19;;;7.74;86.91
36234;BME280;43467;50.890;5.982;2023-02-22T03:30:35;99974.69;;;7.73;87.04
36234;BME280;43467;50.890;5.982;2023-02-22T03:33:08;99972.94;;;7.72;85.77
36234;BME280;43467;50.890;5.982;2023-02-22T03:35:41;99965.00;;;7.74;85.15
36234;BME280;43467;50.890;5.982;2023-02-22T03:38:12;99964.22;;;7.70;84.03
36234;BME280;43467;50.890;5.982;2023-02-22T03:40:42;99965.97;;;7.71;83.63
36234;BME280;43467;50.890;5.982;2023-02-22T03:43:13;99964.13;;;7.73;82.98
36234;BME280;43467;50.890;5.982;2023-02-22T03:45:42;99954.63;;;7.69;82.58
36234;BME280;43467;50.890;5.982;2023-02-22T03:50:44;99949.53;;;7.65;82.16
36234;BME280;43467;50.890;5.982;2023-02-22T03:53:09;99947.84;;;7.62;81.82
36234;BME280;43467;50.890;5.982;2023-02-22T03:55:35;99951.06;;;7.70;81.15
36234;BME280;43467;50.890;5.982;2023-02-22T03:58:05;99939.84;;;7.65;80.85
36234;BME280;43467;50.890;5.982;2023-02-22T04:00:34;99941.22;;;7.52;80.43
36234;BME280;43467;50.890;5.982;2023-02-22T04:02:59;99935.69;;;7.36;81.07
36234;BME280;43467;50.890;5.982;2023-02-22T04:05:25;99935.31;;;7.22;81.98
36234;BME280;43467;50.890;5.982;2023-02-22T04:07:55;99930.31;;;7.16;82.52
36234;BME280;43467;50.890;5.982;2023-02-22T04:10:22;99940.19;;;7.10;82.68
36234;BME280;43467;50.890;5.982;2023-02-22T04:12:49;99927.13;;;7.07;82.59
36234;BME280;43467;50.890;5.982;2023-02-22T04:15:19;99924.06;;;7.19;82.68
36234;BME280;43467;50.890;5.982;2023-02-22T04:17:45;99927.13;;;7.30;82.35
36234;BME280;43467;50.890;5.982;2023-02-22T04:20:10;99919.94;;;7.35;81.10
36234;BME280;43467;50.890;5.982;2023-02-22T04:22:38;99924.91;;;7.42;80.85
36234;BME280;43467;50.890;5.982;2023-02-22T04:25:04;99919.34;;;7.50;80.93
36234;BME280;43467;50.890;5.982;2023-02-22T04:27:29;99919.44;;;7.48;80.87
36234;BME280;43467;50.890;5.982;2023-02-22T04:29:55;99895.28;;;7.37;80.71
36234;BME280;43467;50.890;5.982;2023-02-22T04:32:20;99912.25;;;7.52;80.39
36234;BME280;43467;50.890;5.982;2023-02-22T04:34:45;99912.13;;;7.55;80.50
36234;BME280;43467;50.890;5.982;2023-02-22T04:37:11;99903.44;;;7.53;80.05
36234;BME280;43467;50.890;5.982;2023-02-22T04:39:37;99912.81;;;7.60;80.16
36234;BME280;43467;50.890;5.982;2023-02-22T04:42:02;99902.41;;;7.57;79.95
36234;BME280;43467;50.890;5.982;2023-02-22T04:44:28;99915.88;;;7.50;79.85
36234;BME280;43467;50.890;5.982;2023-02-22T04:46:53;99905.38;;;7.48;79.91
36234;BME280;43467;50.890;5.982;2023-02-22T04:49:20;99900.41;;;7.40;80.03
36234;BME280;43467;50.890;5.982;2023-02-22T04:51:46;99908.81;;;7.50;80.40
36234;BME280;43467;50.890;5.982;2023-02-22T04:54:11;99894.34;;;7.38;80.33
36234;BME280;43467;50.890;5.982;2023-02-22T04:56:37;99895.44;;;7.33;80.05
36234;BME280;43467;50.890;5.982;2023-02-22T04:59:03;99898.41;;;7.47;80.37
36234;BME280;43467;50.890;5.982;2023-02-22T05:01:32;99896.50;;;7.51;79.54
36234;BME280;43467;50.890;5.982;2023-02-22T05:04:01;99887.00;;;7.46;79.76
36234;BME280;43467;50.890;5.982;2023-02-22T05:06:26;99883.88;;;7.37;79.81
36234;BME280;43467;50.890;5.982;2023-02-22T05:08:51;99880.44;;;7.35;80.68
36234;BME280;43467;50.890;5.982;2023-02-22T05:11:17;99864.22;;;7.22;80.06
36234;BME280;43467;50.890;5.982;2023-02-22T05:13:42;99883.06;;;7.35;80.31
36234;BME280;43467;50.890;5.982;2023-02-22T05:16:08;99876.19;;;7.31;79.85
36234;BME280;43467;50.890;5.982;2023-02-22T05:18:33;99867.50;;;7.29;79.63
36234;BME280;43467;50.890;5.982;2023-02-22T05:20:59;99868.97;;;7.36;79.55
36234;BME280;43467;50.890;5.982;2023-02-22T05:23:24;99862.00;;;7.35;78.88
36234;BME280;43467;50.890;5.982;2023-02-22T05:25:50;99856.59;;;7.38;79.12
36234;BME280;43467;50.890;5.982;2023-02-22T05:28:15;99861.88;;;7.38;79.08
36234;BME280;43467;50.890;5.982;2023-02-22T05:30:41;99853.97;;;7.38;79.01
36234;BME280;43467;50.890;5.982;2023-02-22T05:33:07;99856.03;;;7.30;78.86
36234;BME280;43467;50.890;5.982;2023-02-22T05:35:33;99850.78;;;7.30;78.69
36234;BME280;43467;50.890;5.982;2023-02-22T05:37:58;99839.19;;;7.34;79.21
36234;BME280;43467;50.890;5.982;2023-02-22T05:40:26;99845.28;;;7.36;78.91
36234;BME280;43467;50.890;5.982;2023-02-22T05:42:52;99834.06;;;7.31;78.99
36234;BME280;43467;50.890;5.982;2023-02-22T05:45:20;99837.56;;;7.31;79.47
36234;BME280;43467;50.890;5.982;2023-02-22T05:47:46;99841.84;;;7.34;79.42
36234;BME280;43467;50.890;5.982;2023-02-22T05:50:12;99832.91;;;7.38;79.55
36234;BME280;43467;50.890;5.982;2023-02-22T05:52:39;99841.75;;;7.37;79.51
36234;BME280;43467;50.890;5.982;2023-02-22T05:55:05;99835.63;;;7.36;79.60
36234;BME280;43467;50.890;5.982;2023-02-22T05:57:31;99825.38;;;7.29;79.55
36234;BME280;43467;50.890;5.982;2023-02-22T05:59:57;99822.91;;;7.24;79.95
36234;BME280;43467;50.890;5.982;2023-02-22T06:02:22;99807.97;;;7.25;79.96
36234;BME280;43467;50.890;5.982;2023-02-22T06:04:47;99814.84;;;7.29;79.71
36234;BME280;43467;50.890;5.982;2023-02-22T06:07:13;99815.59;;;7.32;80.26
36234;BME280;43467;50.890;5.982;2023-02-22T06:09:39;99811.28;;;7.30;80.56
36234;BME280;43467;50.890;5.982;2023-02-22T06:12:06;99811.00;;;7.37;80.80
36234;BME280;43467;50.890;5.982;2023-02-22T06:14:32;99815.63;;;7.31;80.11
36234;BME280;43467;50.890;5.982;2023-02-22T06:16:57;99812.13;;;7.30;79.95
36234;BME280;43467;50.890;5.982;2023-02-22T06:19:25;99809.88;;;7.21;80.43
36234;BME280;43467;50.890;5.982;2023-02-22T06:21:52;99799.16;;;7.26;81.02
36234;BME280;43467;50.890;5.982;2023-02-22T06:24:18;99808.84;;;7.25;80.68
36234;BME280;43467;50.890;5.982;2023-02-22T06:26:43;99799.34;;;7.21;81.07
36234;BME280;43467;50.890;5.982;2023-02-22T06:29:09;99797.81;;;7.16;80.62
36234;BME280;43467;50.890;5.982;2023-02-22T06:31:34;99797.44;;;7.25;80.62
36234;BME280;43467;50.890;5.982;2023-02-22T06:34:00;99802.91;;;7.20;80.16
36234;BME280;43467;50.890;5.982;2023-02-22T06:36:26;99802.06;;;7.18;80.55
36234;BME280;43467;50.890;5.982;2023-02-22T06:38:51;99793.16;;;7.22;80.17
36234;BME280;43467;50.890;5.982;2023-02-22T06:41:16;99798.22;;;7.27;80.13
36234;BME280;43467;50.890;5.982;2023-02-22T06:43:42;99802.59;;;7.28;79.68
36234;BME280;43467;50.890;5.982;2023-02-22T06:46:11;99798.91;;;7.32;79.91
36234;BME280;43467;50.890;5.982;2023-02-22T06:48:37;99797.75;;;7.39;78.96
36234;BME280;43467;50.890;5.982;2023-02-22T06:51:07;99773.44;;;7.32;79.29
36234;BME280;43467;50.890;5.982;2023-02-22T06:53:33;99800.34;;;7.40;79.46
36234;BME280;43467;50.890;5.982;2023-02-22T06:55:59;99798.38;;;7.45;79.37
36234;BME280;43467;50.890;5.982;2023-02-22T06:58:26;99794.22;;;7.40;78.75
36234;BME280;43467;50.890;5.982;2023-02-22T07:00:52;99795.84;;;7.42;78.81
36234;BME280;43467;50.890;5.982;2023-02-22T07:03:17;99796.56;;;7.46;78.85
36234;BME280;43467;50.890;5.982;2023-02-22T07:05:43;99792.19;;;7.46;78.72
36234;BME280;43467;50.890;5.982;2023-02-22T07:08:09;99793.03;;;7.47;78.40
36234;BME280;43467;50.890;5.982;2023-02-22T07:10:35;99793.66;;;7.54;77.97
36234;BME280;43467;50.890;5.982;2023-02-22T07:13:02;99800.53;;;7.58;78.24
36234;BME280;43467;50.890;5.982;2023-02-22T07:15:31;99799.28;;;7.66;77.78
36234;BME280;43467;50.890;5.982;2023-02-22T07:17:57;99798.16;;;7.72;77.83
36234;BME280;43467;50.890;5.982;2023-02-22T07:20:23;99795.31;;;7.78;77.98
36234;BME280;43467;50.890;5.982;2023-02-22T07:22:49;99792.59;;;7.79;77.93
36234;BME280;43467;50.890;5.982;2023-02-22T07:25:16;99789.94;;;7.79;77.87
36234;BME280;43467;50.890;5.982;2023-02-22T07:27:42;99797.28;;;7.93;77.38
36234;BME280;43467;50.890;5.982;2023-02-22T07:30:18;99801.50;;;7.97;77.56
36234;BME280;43467;50.890;5.982;2023-02-22T07:32:45;99794.31;;;8.01;77.91
36234;BME280;43467;50.890;5.982;2023-02-22T07:35:15;99790.97;;;7.97;76.85
36234;BME280;43467;50.890;5.982;2023-02-22T07:37:41;99801.91;;;8.08;77.67
36234;BME280;43467;50.890;5.982;2023-02-22T07:40:07;99805.34;;;8.10;77.36
36234;BME280;43467;50.890;5.982;2023-02-22T07:42:32;99795.25;;;8.20;77.65
36234;BME280;43467;50.890;5.982;2023-02-22T07:44:58;99794.09;;;8.27;77.42
36234;BME280;43467;50.890;5.982;2023-02-22T07:47:23;99792.97;;;8.32;77.13
36234;BME280;43467;50.890;5.982;2023-02-22T07:49:48;99796.22;;;8.39;76.73
36234;BME280;43467;50.890;5.982;2023-02-22T07:52:14;99781.56;;;8.32;76.30
36234;BME280;43467;50.890;5.982;2023-02-22T07:54:39;99788.94;;;8.44;76.71
36234;BME280;43467;50.890;5.982;2023-02-22T07:57:05;99789.56;;;8.51;77.30
36234;BME280;43467;50.890;5.982;2023-02-22T07:59:30;99786.72;;;8.55;77.17
36234;BME280;43467;50.890;5.982;2023-02-22T08:01:58;99790.06;;;8.59;76.92
36234;BME280;43467;50.890;5.982;2023-02-22T08:04:23;99795.00;;;8.66;76.07
36234;BME280;43467;50.890;5.982;2023-02-22T08:06:49;99787.13;;;8.65;76.33
36234;BME280;43467;50.890;5.982;2023-02-22T08:09:14;99792.16;;;8.71;77.01
36234;BME280;43467;50.890;5.982;2023-02-22T08:11:39;99798.84;;;8.78;77.10
36234;BME280;43467;50.890;5.982;2023-02-22T08:14:05;99787.28;;;8.80;76.65
36234;BME280;43467;50.890;5.982;2023-02-22T08:16:31;99794.81;;;8.90;75.32
36234;BME280;43467;50.890;5.982;2023-02-22T08:18:56;99785.91;;;8.92;74.86
36234;BME280;43467;50.890;5.982;2023-02-22T08:21:21;99787.38;;;8.98;75.68
36234;BME280;43467;50.890;5.982;2023-02-22T08:23:50;99782.75;;;9.03;75.15
36234;BME280;43467;50.890;5.982;2023-02-22T08:26:17;99765.03;;;9.05;76.32
36234;BME280;43467;50.890;5.982;2023-02-22T08:28:44;99778.69;;;9.14;76.73
36234;BME280;43467;50.890;5.982;2023-02-22T08:31:10;99774.75;;;9.23;76.48
36234;BME280;43467;50.890;5.982;2023-02-22T08:33:35;99778.91;;;9.28;76.93
36234;BME280;43467;50.890;5.982;2023-02-22T08:36:01;99769.19;;;9.29;77.38
36234;BME280;43467;50.890;5.982;2023-02-22T08:38:29;99782.91;;;9.37;77.20
36234;BME280;43467;50.890;5.982;2023-02-22T08:40:55;99776.59;;;9.40;77.33
36234;BME280;43467;50.890;5.982;2023-02-22T08:43:21;99781.50;;;9.47;77.15
36234;BME280;43467;50.890;5.982;2023-02-22T08:45:48;99772.50;;;9.51;76.40
36234;BME280;43467;50.890;5.982;2023-02-22T08:48:14;99780.16;;;9.57;75.86
36234;BME280;43467;50.890;5.982;2023-02-22T08:50:40;99786.25;;;9.58;77.19
36234;BME280;43467;50.890;5.982;2023-02-22T08:53:08;99781.94;;;9.57;77.82
36234;BME280;43467;50.890;5.982;2023-02-22T08:55:39;99778.03;;;9.64;77.60
36234;BME280;43467;50.890;5.982;2023-02-22T08:58:07;99785.75;;;9.68;77.78
36234;BME280;43467;50.890;5.982;2023-02-22T09:00:37;99782.94;;;9.71;77.72
36234;BME280;43467;50.890;5.982;2023-02-22T09:03:05;99779.06;;;9.78;78.08
36234;BME280;43467;50.890;5.982;2023-02-22T09:05:31;99777.22;;;9.80;77.44
36234;BME280;43467;50.890;5.982;2023-02-22T09:07:58;99779.63;;;9.85;78.16
36234;BME280;43467;50.890;5.982;2023-02-22T09:10:27;99761.97;;;9.86;79.13
36234;BME280;43467;50.890;5.982;2023-02-22T09:12:53;99771.25;;;9.94;79.46
36234;BME280;43467;50.890;5.982;2023-02-22T09:15:23;99767.88;;;10.08;79.10
36234;BME280;43467;50.890;5.982;2023-02-22T09:17:49;99758.09;;;10.10;78.58
36234;BME280;43467;50.890;5.982;2023-02-22T09:20:16;99762.91;;;10.19;78.94
36234;BME280;43467;50.890;5.982;2023-02-22T09:22:44;99763.78;;;10.19;77.98
36234;BME280;43467;50.890;5.982;2023-02-22T09:25:10;99768.09;;;10.22;79.02
36234;BME280;43467;50.890;5.982;2023-02-22T09:27:35;99767.69;;;10.30;79.34
36234;BME280;43467;50.890;5.982;2023-02-22T09:30:00;99770.72;;;10.39;79.01
36234;BME280;43467;50.890;5.982;2023-02-22T09:32:26;99760.41;;;10.50;78.70
36234;BME280;43467;50.890;5.982;2023-02-22T09:34:52;99767.88;;;10.59;78.04
36234;BME280;43467;50.890;5.982;2023-02-22T09:37:18;99757.44;;;10.56;78.33
36234;BME280;43467;50.890;5.982;2023-02-22T09:39:44;99762.00;;;10.70;78.23
36234;BME280;43467;50.890;5.982;2023-02-22T09:42:30;99759.78;;;10.78;76.69
36234;BME280;43467;50.890;5.982;2023-02-22T09:45:09;99765.44;;;10.88;76.05
36234;BME280;43467;50.890;5.982;2023-02-22T09:47:45;99758.88;;;10.95;75.21
36234;BME280;43467;50.890;5.982;2023-02-22T09:50:23;99747.16;;;10.99;75.02
36234;BME280;43467;50.890;5.982;2023-02-22T09:52:54;99764.25;;;11.09;74.85
36234;BME280;43467;50.890;5.982;2023-02-22T09:55:39;99760.25;;;11.17;74.88
36234;BME280;43467;50.890;5.982;2023-02-22T10:00:50;99752.28;;;11.33;75.02
36234;BME280;43467;50.890;5.982;2023-02-22T10:06:34;99749.53;;;11.50;72.74
36234;BME280;43467;50.890;5.982;2023-02-22T10:09:02;99743.97;;;11.55;72.20
36234;BME280;43467;50.890;5.982;2023-02-22T10:11:50;99742.59;;;11.63;70.89
36234;BME280;43467;50.890;5.982;2023-02-22T10:22:38;99734.44;;;11.98;70.08
36234;BME280;43467;50.890;5.982;2023-02-22T10:25:13;99734.53;;;12.10;69.22
36234;BME280;43467;50.890;5.982;2023-02-22T10:27:47;99737.69;;;12.17;65.88
36234;BME280;43467;50.890;5.982;2023-02-22T10:30:19;99743.56;;;12.22;63.41
36234;BME280;43467;50.890;5.982;2023-02-22T10:32:51;99738.94;;;12.26;63.48
36234;BME280;43467;50.890;5.982;2023-02-22T10:35:23;99747.09;;;12.37;64.32
36234;BME280;43467;50.890;5.982;2023-02-22T10:37:53;99746.63;;;12.44;65.05
36234;BME280;43467;50.890;5.982;2023-02-22T10:40:22;99747.94;;;12.51;66.25
36234;BME280;43467;50.890;5.982;2023-02-22T10:42:57;99722.38;;;12.50;66.53
36234;BME280;43467;50.890;5.982;2023-02-22T10:45:28;99754.41;;;12.62;65.33
36234;BME280;43467;50.890;5.982;2023-02-22T10:47:58;99746.91;;;12.68;66.37
36234;BME280;43467;50.890;5.982;2023-02-22T10:50:27;99747.03;;;12.67;67.01
36234;BME280;43467;50.890;5.982;2023-02-22T10:52:53;99750.41;;;12.69;67.16
36234;BME280;43467;50.890;5.982;2023-02-22T10:55:20;99726.13;;;12.61;67.92
36234;BME280;43467;50.890;5.982;2023-02-22T10:57:47;99748.06;;;12.78;67.10
36234;BME280;43467;50.890;5.982;2023-02-22T11:00:28;99747.19;;;12.78;66.85
36234;BME280;43467;50.890;5.982;2023-02-22T11:03:05;99742.25;;;12.72;67.65
36234;BME280;43467;50.890;5.982;2023-02-22T11:05:41;99737.91;;;12.71;68.14
36234;BME280;43467;50.890;5.982;2023-02-22T11:10:39;99740.28;;;12.75;67.98
36234;BME280;43467;50.890;5.982;2023-02-22T11:13:17;99745.28;;;12.80;67.38
36234;BME280;43467;50.890;5.982;2023-02-22T11:15:43;99740.25;;;12.89;68.19
36234;BME280;43467;50.890;5.982;2023-02-22T11:18:25;99741.22;;;12.88;65.09
36234;BME280;43467;50.890;5.982;2023-02-22T11:21:20;99745.50;;;12.91;65.37
36234;BME280;43467;50.890;5.982;2023-02-22T11:23:47;99739.59;;;12.86;64.78
36234;BME280;43467;50.890;5.982;2023-02-22T11:26:17;99721.75;;;12.88;64.25
36234;BME280;43467;50.890;5.982;2023-02-22T11:28:49;99721.94;;;12.99;63.96
36234;BME280;43467;50.890;5.982;2023-02-22T11:31:27;99722.31;;;13.07;63.64
36234;BME280;43467;50.890;5.982;2023-02-22T11:34:00;99729.72;;;13.16;63.10
36234;BME280;43467;50.890;5.982;2023-02-22T11:38:58;99725.81;;;13.22;63.29
36234;BME280;43467;50.890;5.982;2023-02-22T11:41:32;99721.31;;;13.36;63.28
36234;BME280;43467;50.890;5.982;2023-02-22T11:44:13;99725.66;;;13.37;62.39
36234;BME280;43467;50.890;5.982;2023-02-22T11:46:40;99718.84;;;13.33;62.94
36234;BME280;43467;50.890;5.982;2023-02-22T11:49:11;99722.91;;;13.39;62.72
36234;BME280;43467;50.890;5.982;2023-02-22T11:52:00;99727.16;;;13.41;63.01
36234;BME280;43467;50.890;5.982;2023-02-22T12:05:22;99732.13;;;13.33;62.75
36234;BME280;43467;50.890;5.982;2023-02-22T12:08:00;99733.84;;;13.34;62.76
36234;BME280;43467;50.890;5.982;2023-02-22T12:15:58;99728.78;;;13.44;62.72
36234;BME280;43467;50.890;5.982;2023-02-22T12:20:59;99731.34;;;13.45;62.62
36234;BME280;43467;50.890;5.982;2023-02-22T12:26:25;99734.97;;;13.44;62.51
36234;BME280;43467;50.890;5.982;2023-02-22T12:28:58;99739.59;;;13.41;62.71
36234;BME280;43467;50.890;5.982;2023-02-22T12:36:39;99726.63;;;13.63;63.17
36234;BME280;43467;50.890;5.982;2023-02-22T12:41:53;99724.59;;;13.67;63.09
36234;BME280;43467;50.890;5.982;2023-02-22T12:44:26;99728.03;;;13.69;63.16
36234;BME280;43467;50.890;5.982;2023-02-22T12:46:55;99723.25;;;13.74;62.97
36234;BME280;43467;50.890;5.982;2023-02-22T12:49:51;99731.03;;;13.77;62.87
36234;BME280;43467;50.890;5.982;2023-02-22T12:55:24;99734.56;;;13.77;63.41
36234;BME280;43467;50.890;5.982;2023-02-22T13:00:54;99720.41;;;13.77;62.67
36234;BME280;43467;50.890;5.982;2023-02-22T13:06:10;99724.09;;;13.74;62.77
36234;BME280;43467;50.890;5.982;2023-02-22T13:08:47;99721.56;;;13.73;63.07
36234;BME280;43467;50.890;5.982;2023-02-22T13:11:36;99722.28;;;13.75;63.23
36234;BME280;43467;50.890;5.982;2023-02-22T13:14:40;99714.91;;;13.66;63.07
36234;BME280;43467;50.890;5.982;2023-02-22T13:17:17;99715.78;;;13.66;63.30
36234;BME280;43467;50.890;5.982;2023-02-22T13:20:09;99716.84;;;13.64;63.74
36234;BME280;43467;50.890;5.982;2023-02-22T13:22:44;99713.53;;;13.60;63.57
36234;BME280;43467;50.890;5.982;2023-02-22T13:25:17;99708.84;;;13.64;64.12
36234;BME280;43467;50.890;5.982;2023-02-22T13:30:52;99710.16;;;13.71;64.11
36234;BME280;43467;50.890;5.982;2023-02-22T13:36:36;99710.06;;;13.72;63.75
36234;BME280;43467;50.890;5.982;2023-02-22T13:41:50;99716.84;;;13.64;64.32
36234;BME280;43467;50.890;5.982;2023-02-22T13:44:34;99709.94;;;13.61;64.42
36234;BME280;43467;50.890;5.982;2023-02-22T13:52:27;99711.91;;;13.58;64.47
36234;BME280;43467;50.890;5.982;2023-02-22T13:54:57;99708.81;;;13.51;64.81
36234;BME280;43467;50.890;5.982;2023-02-22T13:57:38;99706.81;;;13.55;65.35
36234;BME280;43467;50.890;5.982;2023-02-22T14:00:44;99707.00;;;13.52;65.16
36234;BME280;43467;50.890;5.982;2023-02-22T14:13:13;99719.25;;;13.54;66.20
36234;BME280;43467;50.890;5.982;2023-02-22T14:18:49;99716.19;;;13.60;65.92
36234;BME280;43467;50.890;5.982;2023-02-22T14:21:24;99720.75;;;13.58;66.23
36234;BME280;43467;50.890;5.982;2023-02-22T14:23:51;99711.44;;;13.65;66.76
36234;BME280;43467;50.890;5.982;2023-02-22T14:34:18;99717.91;;;13.74;66.15
36234;BME280;43467;50.890;5.982;2023-02-22T14:37:00;99722.41;;;13.73;66.61
36234;BME280;43467;50.890;5.982;2023-02-22T14:42:51;99723.69;;;13.80;66.35
36234;BME280;43467;50.890;5.982;2023-02-22T14:45:14;99734.09;;;13.71;66.91
36234;BME280;43467;50.890;5.982;2023-02-22T14:55:42;99726.03;;;13.72;67.06
36234;BME280;43467;50.890;5.982;2023-02-22T14:58:21;99728.91;;;13.69;67.50
36234;BME280;43467;50.890;5.982;2023-02-22T15:00:49;99725.56;;;13.66;67.29
36234;BME280;43467;50.890;5.982;2023-02-22T15:03:33;99726.63;;;13.63;67.66
36234;BME280;43467;50.890;5.982;2023-02-22T15:08:44;99733.09;;;13.59;68.47
36234;BME280;43467;50.890;5.982;2023-02-22T15:11:25;99729.44;;;13.47;68.43
36234;BME280;43467;50.890;5.982;2023-02-22T15:13:53;99724.13;;;13.47;68.79
36234;BME280;43467;50.890;5.982;2023-02-22T15:16:20;99733.91;;;13.47;68.89
36234;BME280;43467;50.890;5.982;2023-02-22T15:18:51;99732.44;;;13.29;69.42
36234;BME280;43467;50.890;5.982;2023-02-22T15:21:24;99733.09;;;13.32;69.85
36234;BME280;43467;50.890;5.982;2023-02-22T15:23:53;99718.25;;;13.16;70.01
36234;BME280;43467;50.890;5.982;2023-02-22T15:28:55;99729.53;;;13.19;70.59